METAR Data
IDs: Format: Raw Decoded Include TAF

Data at: 1059 UTC 26 Sep 2018

K2J9 261055Z AUTO 00000KT 7SM BKN028 OVC034 21/21 A3009 RMK AO2
K2J9 261035Z AUTO 00000KT 5SM BR FEW025 SCT032 BKN038 21/21 A3008 RMK AO2
K2J9 261015Z AUTO 11003KT 7SM SCT039 SCT045 22/22 A3008 RMK AO2
K2J9 260955Z AUTO 00000KT 7SM FEW031 BKN039 BKN045 22/22 A3008 RMK AO2
K2J9 260935Z AUTO 00000KT 6SM BR BKN027 BKN038 BKN044 22/22 A3008 RMK AO2
K2J9 260915Z AUTO 00000KT 5SM BR BKN028 BKN033 BKN047 22/22 A3009 RMK AO2
K2J9 260855Z AUTO 00000KT 5SM BR FEW028 BKN036 BKN047 22/22 A3009 RMK AO2
K2J9 260835Z AUTO 00000KT 7SM FEW032 OVC037 22/22 A3009 RMK AO2
K2J9 260815Z AUTO 00000KT 8SM BKN031 BKN036 OVC044 22/22 A3009 RMK AO2
K2J9 260755Z AUTO 06003KT 9SM BKN029 OVC036 22/22 A3010 RMK AO2
K2J9 260735Z AUTO 00000KT 9SM BKN030 BKN036 OVC045 23/23 A3011 RMK AO2
K2J9 260715Z AUTO 00000KT 8SM BKN032 BKN046 OVC075 22/22 A3011 RMK AO2
K2J9 260655Z AUTO 00000KT 10SM BKN035 OVC048 22/22 A3012 RMK AO2
K2J9 260635Z AUTO 00000KT 9SM OVC036 22/22 A3012 RMK AO2
K2J9 260615Z AUTO 00000KT 9SM SCT036 BKN044 OVC050 22/22 A3012 RMK AO2
K2J9 260555Z AUTO 00000KT 9SM BKN043 OVC048 22/22 A3012 RMK AO2
K2J9 260535Z AUTO 00000KT 9SM SCT035 OVC043 22/22 A3013 RMK AO2
K2J9 260515Z AUTO 00000KT 10SM FEW029 BKN039 OVC050 22/22 A3013 RMK AO2
K2J9 260455Z AUTO 00000KT 9SM FEW039 BKN047 22/22 A3013 RMK AO2
K2J9 260435Z AUTO 00000KT 9SM BKN047 22/22 A3013 RMK AO2
K2J9 260415Z AUTO 00000KT 9SM SCT033 SCT049 22/22 A3013 RMK AO2
K2J9 260355Z AUTO 00000KT 8SM SCT033 SCT047 22/23 A3013 RMK AO2
K2J9 260335Z AUTO 00000KT 9SM FEW037 FEW046 23/23 A3012 RMK AO2
K2J9 260315Z AUTO 00000KT 9SM SCT031 BKN038 BKN044 23/23 A3012 RMK AO2
K2J9 260255Z AUTO 00000KT 9SM SCT036 23/23 A3012 RMK AO2
K2J9 260235Z AUTO 00000KT 9SM FEW031 SCT037 23/23 A3012 RMK AO2
K2J9 260215Z AUTO 00000KT 9SM SCT027 BKN032 23/23 A3011 RMK AO2
K2J9 260155Z AUTO 00000KT 9SM BKN027 BKN032 BKN040 23/23 A3011 RMK AO2
K2J9 260135Z AUTO 00000KT 8SM BKN031 BKN037 BKN044 23/23 A3010 RMK AO2
K2J9 260115Z AUTO 00000KT 9SM FEW026 BKN033 BKN038 24/24 A3010 RMK AO2
K2J9 260055Z AUTO 00000KT 10SM FEW030 SCT034 BKN040 24/24 A3009 RMK AO2
K2J9 260035Z AUTO 00000KT 8SM FEW029 SCT034 BKN047 24/24 A3008 RMK AO2
K2J9 260015Z AUTO 00000KT 10SM CLR 24/24 A3008 RMK AO2
K2J9 252355Z AUTO 00000KT 10SM CLR 24/24 A3008 RMK AO2
K2J9 252335Z AUTO 00000KT 9SM CLR 25/24 A3008 RMK AO2
K2J9 252315Z AUTO 01003KT 10SM CLR 25/24 A3008 RMK AO2
K2J9 252255Z AUTO 00000KT 10SM CLR 25/24 A3008 RMK AO2
K2J9 252235Z AUTO 00000KT 10SM CLR 26/24 A3008 RMK AO2
K2J9 252215Z AUTO 31004KT 10SM CLR 26/24 A3008 RMK AO2
K2J9 252155Z AUTO 31005KT 10SM CLR 26/24 A3007 RMK AO2
K2J9 252135Z AUTO 00000KT 10SM CLR 26/23 A3007 RMK AO2
K2J9 252115Z AUTO 31004KT 10SM CLR 27/23 A3008 RMK AO2
K2J9 252055Z AUTO 00000KT 10SM CLR 27/24 A3008 RMK AO2
K2J9 252035Z AUTO 28004KT 10SM CLR 26/23 A3009 RMK AO2
K2J9 252015Z AUTO 26003KT 10SM CLR 26/24 A3008 RMK AO2
K2J9 251955Z AUTO 21005KT 10SM CLR 26/24 A3007 RMK AO2
K2J9 251935Z AUTO 00000KT 10SM FEW034 FEW041 26/24 A3009 RMK AO2
K2J9 251915Z AUTO 18007KT 10SM FEW004 FEW022 BKN033 26/24 A3010 RMK AO2
K2J9 251855Z AUTO 17011G19KT 1/2SM -RA BKN004 BKN027 OVC040 27/25 A3010 RMK AO2
K2J9 251835Z AUTO 15008KT 10SM SCT037 SCT043 BKN080 32/23 A3009 RMK AO2
K2J9 251815Z AUTO VRB05KT 10SM FEW036 FEW050 BKN080 33/23 A3009 RMK AO2
K2J9 251755Z AUTO 16005KT 10SM BKN035 BKN047 BKN075 31/23 A3011 RMK AO2
K2J9 251735Z AUTO 11005KT 10SM SCT033 SCT038 BKN047 32/23 A3011 RMK AO2
K2J9 251715Z AUTO 07004KT 10SM FEW032 FEW065 FEW075 33/24 A3012 RMK AO2
K2J9 251655Z AUTO 15005KT 10SM SCT030 SCT060 SCT075 32/24 A3012 RMK AO2
K2J9 251635Z AUTO 16007KT 120V180 10SM FEW026 32/24 A3013 RMK AO2
K2J9 251615Z AUTO 11007KT 10SM SCT023 31/25 A3013 RMK AO2
K2J9 251555Z AUTO 00000KT 10SM SCT023 30/24 A3014 RMK AO2
K2J9 251535Z AUTO 11005KT 10SM SCT021 SCT027 30/24 A3014 RMK AO2
K2J9 251515Z AUTO 11006KT 10SM SCT018 30/24 A3014 RMK AO2
K2J9 251455Z AUTO 11004KT 10SM FEW017 29/24 A3014 RMK AO2
K2J9 251435Z AUTO 17005KT 10SM CLR 28/24 A3014 RMK AO2
K2J9 251415Z AUTO 12006KT 10SM FEW014 27/24 A3014 RMK AO2
K2J9 251355Z AUTO 13006KT 10SM CLR 27/24 A3013 RMK AO2
K2J9 251335Z AUTO VRB05KT 10SM CLR 26/24 A3013 RMK AO2
K2J9 251315Z AUTO VRB03KT 10SM CLR 25/24 A3013 RMK AO2
K2J9 251255Z AUTO VRB04KT 10SM FEW006 25/24 A3013 RMK AO2
K2J9 251235Z AUTO 10004KT 9SM CLR 24/24 A3013 RMK AO2
K2J9 251215Z AUTO 00000KT 9SM CLR 23/23 A3012 RMK AO2
K2J9 251155Z AUTO 09004KT 8SM FEW019 23/23 A3011 RMK AO2
K2J9 251135Z AUTO 08004KT 8SM FEW019 23/23 A3011 RMK AO2
K2J9 251115Z AUTO 09004KT 8SM FEW020 23/23 A3010 RMK AO2
K2J9 251055Z AUTO 09004KT 10SM FEW018 23/23 A3010 RMK AO2
K2J9 251035Z AUTO 00000KT 9SM SCT016 SCT020 23/23 A3009 RMK AO2
K2J9 251015Z AUTO 00000KT 10SM FEW015 23/23 A3009 RMK AO2
K2J9 250955Z AUTO 08004KT 9SM FEW019 23/23 A3009 RMK AO2
K2J9 250935Z AUTO 00000KT 10SM FEW018 23/23 A3009 RMK AO2
K2J9 250915Z AUTO 08003KT 10SM CLR 23/23 A3008 RMK AO2
K2J9 250855Z AUTO 00000KT 10SM CLR 23/23 A3008 RMK AO2
K2J9 250835Z AUTO 11004KT 10SM CLR 23/23 A3008 RMK AO2
K2J9 250815Z AUTO 10004KT 10SM CLR 24/23 A3008 RMK AO2
K2J9 250755Z AUTO VRB03KT 10SM CLR 24/23 A3008 RMK AO2
K2J9 250735Z AUTO 11004KT 10SM CLR 24/23 A3008 RMK AO2
K2J9 250715Z AUTO 10004KT 10SM CLR 24/23 A3008 RMK AO2
K2J9 250655Z AUTO VRB04KT 10SM CLR 24/23 A3008 RMK AO2
K2J9 250635Z AUTO 10006KT 10SM CLR 24/23 A3009 RMK AO2
K2J9 250615Z AUTO 10005KT 10SM CLR 24/23 A3008 RMK AO2
K2J9 250555Z AUTO 09004KT 10SM FEW031 SCT038 24/23 A3008 RMK AO2
K2J9 250515Z AUTO 10004KT 10SM BKN027 BKN034 OVC040 23/23 A3009 RMK AO2
K2J9 250455Z AUTO 00000KT 10SM FEW026 BKN037 23/23 A3009 RMK AO2
K2J9 250435Z AUTO 11003KT 10SM FEW041 24/23 A3009 RMK AO2
K2J9 250415Z AUTO 09004KT 10SM FEW043 23/23 A3009 RMK AO2
K2J9 250355Z AUTO 00000KT 10SM FEW049 24/22 A3009 RMK AO2
K2J9 250335Z AUTO 11003KT 10SM CLR 24/23 A3009 RMK AO2
K2J9 250315Z AUTO 00000KT 10SM FEW034 SCT046 24/22 A3009 RMK AO2
K2J9 250255Z AUTO 00000KT 10SM FEW032 SCT044 BKN050 24/23 A3009 RMK AO2
K2J9 250235Z AUTO 00000KT 10SM FEW032 SCT037 BKN050 24/23 A3008 RMK AO2
K2J9 250215Z AUTO 14003KT 10SM FEW035 FEW049 FEW055 24/22 A3008 RMK AO2
K2J9 250155Z AUTO 00000KT 10SM SCT050 SCT055 24/23 A3007 RMK AO2
K2J9 250135Z AUTO 00000KT 10SM BKN055 24/23 A3007 RMK AO2
K2J9 250115Z AUTO 11005G11KT 10SM BKN055 BKN060 24/23 A3006 RMK AO2
K2J9 250055Z AUTO 00000KT 10SM BKN055 BKN065 24/23 A3005 RMK AO2
K2J9 250035Z AUTO 00000KT 10SM BKN060 24/23 A3005 RMK AO2
K2J9 250015Z AUTO 00000KT 10SM CLR 24/23 A3005 RMK AO2
K2J9 242355Z AUTO 00000KT 10SM CLR 25/23 A3004 RMK AO2
K2J9 242335Z AUTO 00000KT 10SM CLR 25/23 A3004 RMK AO2
K2J9 242315Z AUTO 21004KT 10SM FEW028 SCT040 BKN075 26/23 A3003 RMK AO2